Milo, Arkansas
Current Conditions -  °F | °C
As of 9:55 AM on Friday 28 Nov 2014 (Local Time) from KBQP Reporting Station
Clear Clear  
Wind Chill: 43°   Ceiling: Unl
Heat Index: 46°   Visibility: 10mi
Dew Point: 34°   Wind: 6mph
Humidity: 62%   Direction: 160°SSE
Pressure: 30.41"   Gusts: NA
Location:  33.1762°N, 91.7595°W
Report Text: KBQP 281555Z AUTO 16005KT 10SM CLR 08/01 A3041 RMK AO2 T00790011
Loading
Personal Weather Stations






























Interactive Weather Map New forecast layout! Learn more

10-Day Weather Forecast

Advertisements
Track Severe Weather on mobile